createdAt,value
2018-07-27T00:01:41.227Z,29.11
2018-07-27T00:04:09.423Z,28.87
2018-07-27T00:06:37.786Z,29.00
2018-07-27T00:09:08.963Z,29.24
2018-07-27T00:11:37.138Z,27.87
2018-07-27T00:14:05.278Z,28.11
2018-07-27T00:16:33.366Z,27.96
2018-07-27T00:19:01.686Z,28.62
2018-07-27T00:21:30.294Z,28.64
2018-07-27T00:23:59.105Z,28.51
2018-07-27T00:26:28.163Z,28.68
2018-07-27T00:28:56.341Z,28.47
2018-07-27T00:31:24.460Z,28.29
2018-07-27T00:33:53.114Z,28.13
2018-07-27T00:36:21.729Z,28.31
2018-07-27T00:38:49.965Z,28.18
2018-07-27T00:41:20.387Z,28.34
2018-07-27T00:43:49.350Z,28.33
2018-07-27T00:46:17.482Z,27.80
2018-07-27T00:48:45.631Z,27.64
2018-07-27T00:51:14.103Z,28.08
2018-07-27T00:53:42.405Z,28.02
2018-07-27T00:56:10.498Z,27.87
2018-07-27T00:58:38.664Z,28.46
2018-07-27T01:01:06.960Z,27.83
2018-07-27T01:03:35.065Z,27.93
2018-07-27T01:06:03.386Z,27.54
2018-07-27T01:08:31.627Z,27.73
2018-07-27T01:10:59.771Z,27.18
2018-07-27T01:13:28.387Z,27.25
2018-07-27T01:15:58.032Z,26.89
2018-07-27T01:18:26.185Z,26.98
2018-07-27T01:20:54.313Z,26.73
2018-07-27T01:23:22.458Z,26.95
2018-07-27T01:25:50.843Z,26.89
2018-07-27T01:28:19.048Z,26.80
2018-07-27T01:30:47.238Z,26.64
2018-07-27T01:33:15.434Z,26.77
2018-07-27T01:35:44.756Z,26.55
2018-07-27T01:38:12.869Z,26.68
2018-07-27T01:40:41.076Z,26.75
2018-07-27T01:43:09.179Z,26.37
2018-07-27T01:45:37.394Z,26.54
2018-07-27T01:48:06.587Z,26.71
2018-07-27T01:50:35.165Z,26.30
2018-07-27T01:53:04.869Z,26.57
2018-07-27T01:55:33.412Z,26.26
2018-07-27T01:58:01.618Z,26.37
2018-07-27T02:00:30.472Z,26.24
2018-07-27T02:02:59.066Z,26.40
2018-07-27T02:05:27.721Z,26.06
2018-07-27T02:07:56.575Z,26.17
2018-07-27T02:10:25.023Z,26.25
2018-07-27T02:12:53.265Z,26.06
2018-07-27T02:15:22.008Z,26.48
2018-07-27T02:17:50.872Z,26.32
2018-07-27T02:20:19.020Z,25.77
2018-07-27T02:22:47.133Z,26.20
2018-07-27T02:25:15.210Z,26.59
2018-07-27T02:27:43.901Z,26.24
2018-07-27T02:30:12.482Z,25.94
2018-07-27T02:32:40.654Z,25.50
2018-07-27T02:35:08.954Z,25.99
2018-07-27T02:37:38.491Z,26.16
2018-07-27T02:40:07.550Z,26.72
2018-07-27T02:42:35.932Z,25.95
2018-07-27T02:45:04.057Z,25.94
2018-07-27T02:47:32.307Z,26.06
2018-07-27T02:50:00.996Z,26.56
2018-07-27T02:52:29.230Z,26.85
2018-07-27T02:54:57.748Z,26.63
2018-07-27T02:57:26.037Z,26.86
2018-07-27T02:59:54.360Z,26.97
2018-07-27T03:02:22.463Z,26.96
2018-07-27T03:04:52.942Z,26.49
2018-07-27T03:07:22.740Z,26.69
2018-07-27T03:09:52.472Z,26.21
2018-07-27T03:12:20.534Z,26.51
2018-07-27T03:14:49.059Z,26.36
2018-07-27T03:17:17.332Z,26.59
2018-07-27T03:19:45.477Z,25.53
2018-07-27T03:22:13.576Z,25.73
2018-07-27T03:24:42.512Z,25.90
2018-07-27T03:27:12.187Z,26.12
2018-07-27T03:29:40.909Z,25.82
2018-07-27T03:32:09.358Z,26.25
2018-07-27T03:34:39.821Z,25.80
2018-07-27T03:37:07.921Z,25.60
2018-07-27T03:39:36.918Z,25.72
2018-07-27T03:42:05.238Z,25.87
2018-07-27T03:44:33.264Z,25.82
2018-07-27T03:47:01.575Z,25.57
2018-07-27T03:49:29.893Z,25.60
2018-07-27T03:51:58.099Z,25.75
2018-07-27T03:54:26.180Z,25.63
2018-07-27T03:56:54.454Z,25.90
2018-07-27T03:59:22.554Z,25.45
2018-07-27T04:01:50.654Z,25.44
2018-07-27T04:04:18.772Z,25.23
2018-07-27T04:06:46.843Z,25.70
2018-07-27T04:09:15.447Z,25.79
2018-07-27T04:11:43.983Z,25.73
2018-07-27T04:14:12.138Z,26.00
2018-07-27T04:16:41.154Z,26.27
2018-07-27T04:19:09.274Z,25.97
2018-07-27T04:21:37.597Z,25.98
2018-07-27T04:24:06.675Z,26.20
2018-07-27T04:26:34.781Z,26.10
2018-07-27T04:29:02.944Z,25.77
2018-07-27T04:31:31.032Z,25.80
2018-07-27T04:33:59.146Z,25.84
2018-07-27T04:36:27.215Z,25.80
2018-07-27T04:38:55.465Z,25.85
2018-07-27T04:41:23.604Z,25.95
2018-07-27T04:51:41.325Z,25.94
2018-07-27T04:54:09.644Z,25.87
2018-07-27T04:56:38.696Z,25.73
2018-07-27T04:59:06.837Z,25.73
2018-07-27T05:01:34.875Z,25.85
2018-07-27T05:04:06.753Z,25.69
2018-07-27T05:06:34.903Z,25.84
2018-07-27T05:09:08.298Z,25.96
2018-07-27T05:11:36.359Z,26.04
2018-07-27T05:14:07.125Z,26.04
2018-07-27T05:16:36.166Z,25.94
2018-07-27T05:19:04.690Z,25.98
2018-07-27T05:21:32.822Z,25.77
2018-07-27T05:24:00.966Z,25.78
2018-07-27T05:26:29.006Z,25.75
2018-07-27T05:28:57.161Z,25.99
2018-07-27T05:31:25.193Z,25.85
2018-07-27T05:33:54.581Z,25.68
2018-07-27T05:36:22.945Z,25.80
2018-07-27T05:38:51.367Z,25.97
2018-07-27T05:41:19.758Z,26.03
2018-07-27T05:43:48.219Z,26.00
2018-07-27T05:46:17.793Z,26.14
2018-07-27T05:48:46.019Z,26.09
2018-07-27T05:51:15.391Z,26.13
2018-07-27T05:53:43.530Z,25.99
2018-07-27T05:56:11.615Z,26.25
2018-07-27T05:58:39.974Z,26.37
2018-07-27T06:01:10.094Z,26.56
2018-07-27T06:03:39.112Z,26.45
2018-07-27T06:06:08.730Z,26.36
2018-07-27T06:08:36.895Z,26.31
2018-07-27T06:11:05.151Z,26.27
2018-07-27T06:13:35.114Z,26.43
2018-07-27T06:16:03.654Z,26.57
2018-07-27T06:18:31.728Z,26.51
2018-07-27T06:20:59.906Z,26.38
2018-07-27T06:23:27.955Z,26.54
2018-07-27T06:25:56.070Z,26.58
2018-07-27T06:28:25.099Z,26.69
2018-07-27T06:30:53.239Z,26.73
2018-07-27T06:33:22.248Z,26.82
2018-07-27T06:35:51.216Z,26.82
2018-07-27T06:38:19.315Z,26.87
2018-07-27T06:40:47.406Z,27.03
2018-07-27T06:43:15.514Z,27.00
2018-07-27T06:45:44.171Z,27.07
2018-07-27T06:48:19.759Z,27.21
2018-07-27T06:50:49.465Z,27.46
2018-07-27T06:53:17.693Z,27.47
2018-07-27T06:55:47.261Z,27.37
2018-07-27T06:58:15.708Z,27.44
2018-07-27T07:00:44.985Z,27.47
2018-07-27T07:03:15.175Z,27.50
2018-07-27T07:05:43.906Z,27.49
2018-07-27T07:08:13.851Z,27.60
2018-07-27T07:10:42.324Z,27.74
2018-07-27T07:13:10.443Z,27.86
2018-07-27T07:15:38.552Z,27.77
2018-07-27T07:18:06.640Z,27.73
2018-07-27T07:20:34.698Z,27.74
2018-07-27T07:23:02.867Z,27.87
2018-07-27T07:25:31.166Z,27.98
2018-07-27T07:27:59.206Z,28.12
2018-07-27T07:30:29.358Z,28.15
2018-07-27T07:33:00.119Z,28.20
2018-07-27T07:35:29.252Z,28.07
2018-07-27T07:37:58.267Z,28.11
2018-07-27T07:40:27.030Z,28.19
2018-07-27T07:42:57.261Z,28.29
2018-07-27T07:45:25.688Z,28.44
2018-07-27T07:47:53.875Z,28.49
2018-07-27T07:50:22.246Z,28.43
2018-07-27T07:52:51.822Z,28.57
2018-07-27T07:55:20.905Z,28.53
2018-07-27T07:57:49.171Z,28.44
2018-07-27T08:00:18.522Z,28.52
2018-07-27T08:02:46.614Z,28.69
2018-07-27T08:05:14.749Z,28.70
2018-07-27T08:07:44.202Z,28.79
2018-07-27T08:10:12.435Z,28.96
2018-07-27T08:12:40.839Z,29.11
2018-07-27T08:15:09.576Z,29.10
2018-07-27T08:17:37.722Z,29.16
2018-07-27T08:20:05.885Z,29.24
2018-07-27T08:22:35.415Z,29.19
2018-07-27T08:25:04.723Z,29.25
2018-07-27T08:27:33.498Z,29.32
2018-07-27T08:30:01.880Z,29.27
2018-07-27T08:32:31.279Z,29.31
2018-07-27T08:34:59.767Z,29.45
2018-07-27T08:37:27.927Z,29.48
2018-07-27T08:39:56.134Z,29.55
2018-07-27T08:42:25.064Z,29.57
2018-07-27T08:44:55.023Z,29.42
2018-07-27T08:47:23.763Z,29.51
2018-07-27T08:49:53.176Z,29.65
2018-07-27T08:52:21.408Z,29.85
2018-07-27T08:54:51.271Z,29.84
2018-07-27T08:57:20.539Z,30.00
2018-07-27T08:59:48.768Z,30.00
2018-07-27T09:02:16.887Z,30.06
2018-07-27T09:04:44.978Z,30.13
2018-07-27T09:07:13.224Z,30.14
2018-07-27T09:09:41.390Z,30.02
2018-07-27T09:12:10.243Z,30.14
2018-07-27T09:14:39.447Z,30.23
2018-07-27T09:17:07.657Z,30.25
2018-07-27T09:19:35.790Z,30.35
2018-07-27T09:22:03.985Z,30.29
2018-07-27T09:24:32.294Z,30.45
2018-07-27T09:27:01.961Z,30.59
2018-07-27T09:29:30.903Z,30.67
2018-07-27T09:31:58.929Z,30.81
2018-07-27T09:34:33.661Z,30.84
2018-07-27T09:37:02.469Z,30.89
2018-07-27T09:39:30.670Z,30.98
2018-07-27T09:41:58.897Z,30.84
2018-07-27T09:44:27.019Z,30.91
2018-07-27T09:46:55.136Z,31.02
2018-07-27T09:49:27.950Z,30.94
2018-07-27T09:51:56.186Z,31.08
2018-07-27T09:54:24.358Z,31.14
2018-07-27T09:56:53.453Z,31.23
2018-07-27T09:59:21.643Z,31.29
2018-07-27T10:01:50.004Z,31.31
2018-07-27T10:04:18.282Z,31.35
2018-07-27T10:06:46.451Z,31.45
2018-07-27T10:09:16.892Z,31.56
2018-07-27T10:11:45.082Z,31.63
2018-07-27T10:14:13.252Z,31.80
2018-07-27T10:16:42.400Z,31.70
2018-07-27T10:19:10.612Z,31.77
2018-07-27T10:21:38.705Z,31.86
2018-07-27T10:24:06.849Z,32.01
2018-07-27T10:26:35.123Z,32.10
2018-07-27T10:29:03.196Z,32.16
2018-07-27T10:31:32.210Z,32.09
2018-07-27T10:34:00.315Z,32.17
2018-07-27T10:36:28.506Z,32.32
2018-07-27T10:38:56.668Z,32.28
2018-07-27T10:41:27.002Z,32.35
2018-07-27T10:43:55.154Z,32.45
2018-07-27T10:46:24.354Z,32.67
2018-07-27T10:48:53.324Z,32.80
2018-07-27T10:51:21.970Z,32.94
2018-07-27T10:53:52.515Z,32.91
2018-07-27T10:56:21.025Z,33.17
2018-07-27T10:58:53.412Z,33.13
2018-07-27T11:01:24.305Z,33.20
2018-07-27T11:03:52.440Z,33.27
2018-07-27T11:06:20.663Z,33.49
2018-07-27T11:08:48.799Z,33.63
2018-07-27T11:11:17.055Z,33.75
2018-07-27T11:13:45.220Z,33.94
2018-07-27T11:16:13.955Z,34.09
2018-07-27T11:18:42.013Z,34.18
2018-07-27T11:21:10.205Z,34.21
2018-07-27T11:23:38.288Z,34.44
2018-07-27T11:26:06.553Z,34.57
2018-07-27T11:28:34.872Z,34.80
2018-07-27T11:31:04.288Z,35.08
2018-07-27T11:33:33.767Z,34.32
2018-07-27T11:36:01.975Z,33.90
2018-07-27T11:38:31.043Z,33.72
2018-07-27T11:40:59.422Z,33.39
2018-07-27T11:43:27.506Z,34.41
2018-07-27T11:45:55.780Z,35.97
2018-07-27T11:48:25.205Z,37.17
2018-07-27T11:50:55.660Z,38.05
2018-07-27T12:01:39.976Z,37.80
2018-07-27T12:04:08.240Z,41.44
2018-07-27T12:23:53.516Z,43.13
2018-07-27T12:26:21.882Z,43.57
2018-07-27T12:28:53.387Z,44.36
2018-07-27T12:48:38.449Z,44.06
2018-07-27T13:08:23.065Z,45.26
2018-07-27T13:10:51.590Z,44.70
2018-07-27T13:13:19.807Z,46.02
2018-07-27T13:15:47.935Z,45.23
2018-07-27T13:18:15.983Z,45.87
2018-07-27T13:20:50.507Z,45.11
2018-07-27T13:23:19.005Z,47.13
2018-07-27T13:28:44.081Z,46.10
2018-07-27T13:31:13.371Z,46.18
2018-07-27T13:34:57.401Z,47.21
2018-07-27T13:37:27.698Z,46.87
2018-07-27T13:39:57.382Z,47.52
2018-07-27T13:42:28.122Z,47.22
2018-07-27T13:44:57.180Z,47.08
2018-07-27T13:47:25.722Z,46.64
2018-07-27T14:07:09.920Z,42.72
2018-07-27T14:09:38.489Z,41.31
2018-07-27T14:29:24.223Z,45.71
2018-07-27T14:31:53.895Z,46.95
2018-07-27T14:34:22.197Z,45.93
2018-07-27T14:36:50.294Z,46.80
2018-07-27T14:39:19.197Z,46.94
2018-07-27T14:41:49.606Z,45.77
2018-07-27T14:44:18.525Z,46.12
2018-07-27T14:46:46.664Z,46.89
2018-07-27T14:49:17.119Z,45.73
2018-07-27T14:51:45.313Z,45.52
2018-07-27T15:11:28.362Z,46.66
2018-07-27T15:13:56.819Z,46.52
2018-07-27T15:16:25.300Z,46.54
2018-07-27T15:18:53.414Z,46.60
2018-07-27T15:21:21.493Z,46.99
2018-07-27T15:23:49.572Z,46.58
2018-07-27T15:26:17.763Z,47.24
2018-07-27T15:46:00.211Z,45.74
2018-07-27T15:48:28.938Z,45.59
2018-07-27T15:50:57.533Z,46.65
2018-07-27T16:10:41.301Z,44.18
2018-07-27T16:13:11.102Z,44.11
2018-07-27T16:15:39.211Z,44.60
2018-07-27T16:35:24.678Z,39.81
2018-07-27T16:55:08.487Z,39.28
2018-07-27T16:57:36.840Z,38.57
2018-07-27T17:00:05.125Z,38.73
2018-07-27T17:19:52.487Z,37.68
2018-07-27T17:39:36.759Z,36.98
2018-07-27T17:42:05.013Z,36.93
2018-07-27T17:44:36.357Z,37.05
2018-07-27T17:47:04.875Z,36.95
2018-07-27T17:49:33.137Z,37.19
2018-07-27T17:52:01.199Z,37.26
2018-07-27T17:54:29.386Z,36.98
2018-07-27T17:56:58.786Z,37.02
2018-07-27T17:59:26.925Z,37.16
2018-07-27T18:01:57.181Z,37.00
2018-07-27T18:04:26.060Z,36.92
2018-07-27T18:06:54.147Z,36.65
2018-07-27T18:09:22.300Z,36.79
2018-07-27T18:11:50.600Z,36.41
2018-07-27T18:14:18.876Z,36.41
2018-07-27T18:16:51.750Z,36.67
2018-07-27T18:19:21.573Z,36.29
2018-07-27T18:21:49.650Z,36.34
2018-07-27T18:24:20.817Z,35.86
2018-07-27T18:26:49.450Z,36.13
2018-07-27T18:29:17.596Z,36.29
2018-07-27T18:31:45.841Z,35.98
2018-07-27T18:34:14.081Z,35.77
2018-07-27T18:36:42.330Z,35.57
2018-07-27T18:39:12.070Z,35.57
2018-07-27T18:41:40.563Z,35.50
2018-07-27T18:44:09.394Z,35.39
2018-07-27T18:46:38.569Z,35.45
2018-07-27T18:49:06.791Z,35.49
2018-07-27T18:51:35.116Z,35.43
2018-07-27T18:54:04.007Z,35.29
2018-07-27T18:56:34.668Z,35.21
2018-07-27T18:59:02.936Z,35.18
2018-07-27T19:01:31.404Z,35.17
2018-07-27T19:03:59.538Z,34.99
2018-07-27T19:06:28.603Z,34.87
2018-07-27T19:08:56.856Z,34.69
2018-07-27T19:11:26.028Z,34.64
2018-07-27T19:13:54.941Z,34.43
2018-07-27T19:33:39.762Z,33.97
2018-07-27T19:36:07.958Z,33.83
2018-07-27T19:38:36.572Z,33.87
2018-07-27T19:41:05.224Z,33.76
2018-07-27T19:43:33.314Z,33.59
2018-07-27T19:46:02.244Z,33.46
2018-07-27T19:48:30.362Z,32.92
2018-07-27T19:50:58.594Z,33.26
2018-07-27T20:10:42.131Z,32.75
2018-07-27T20:13:10.371Z,32.12
2018-07-27T20:15:38.522Z,32.18
2018-07-27T20:18:06.727Z,32.21
2018-07-27T20:37:51.381Z,32.07
2018-07-27T20:57:35.449Z,31.73
2018-07-27T21:00:03.607Z,31.83
2018-07-27T21:02:32.240Z,31.60
2018-07-27T21:05:00.400Z,31.37
2018-07-27T21:07:28.499Z,31.41
2018-07-27T21:09:56.941Z,31.29
2018-07-27T21:12:24.983Z,31.30
2018-07-27T21:14:53.058Z,31.48
2018-07-27T21:17:21.142Z,31.35
2018-07-27T21:19:49.447Z,31.34
2018-07-27T21:22:18.809Z,30.72
2018-07-27T21:24:46.924Z,31.05
2018-07-27T21:27:14.978Z,30.98
2018-07-27T21:29:43.065Z,31.10
2018-07-27T21:32:11.197Z,30.80
2018-07-27T21:34:39.279Z,30.84
2018-07-27T21:37:07.460Z,31.06
2018-07-27T21:56:52.763Z,30.54
2018-07-27T21:59:21.490Z,30.69
2018-07-27T22:01:49.938Z,30.62
2018-07-27T22:04:18.110Z,30.57
2018-07-27T22:06:46.259Z,30.56
2018-07-27T22:09:14.394Z,30.41
2018-07-27T22:11:42.526Z,30.37
2018-07-27T22:14:10.983Z,30.55
2018-07-27T22:16:39.151Z,30.59
2018-07-27T22:19:09.049Z,30.51
2018-07-27T22:38:54.681Z,30.17
2018-07-27T22:41:22.851Z,30.03
2018-07-27T22:43:51.390Z,30.05
2018-07-27T22:46:19.719Z,29.69
2018-07-27T22:48:47.988Z,29.82
2018-07-27T22:51:16.164Z,29.99
2018-07-27T22:53:44.362Z,30.21
2018-07-27T22:56:12.557Z,30.10
2018-07-27T22:58:41.629Z,29.98
2018-07-27T23:01:09.791Z,29.85
2018-07-27T23:03:38.837Z,29.86
2018-07-27T23:06:07.392Z,29.77
2018-07-27T23:08:35.488Z,29.74
2018-07-27T23:11:04.030Z,29.59
2018-07-27T23:13:32.088Z,28.11
2018-07-27T23:16:00.196Z,28.75
2018-07-27T23:18:29.252Z,29.56
2018-07-27T23:20:57.530Z,29.81
2018-07-27T23:23:25.690Z,29.98
2018-07-27T23:25:54.005Z,29.63
2018-07-27T23:28:22.161Z,29.13
2018-07-27T23:30:50.374Z,29.16
2018-07-27T23:33:19.219Z,28.79
2018-07-27T23:35:47.347Z,28.61
2018-07-27T23:38:15.745Z,29.41
2018-07-27T23:40:43.894Z,29.20
2018-07-27T23:43:12.675Z,29.44
2018-07-27T23:45:40.780Z,29.40
2018-07-27T23:48:09.054Z,29.34
2018-07-27T23:50:37.519Z,28.60
2018-07-27T23:53:06.658Z,28.82
2018-07-27T23:55:36.421Z,28.76
2018-07-27T23:58:04.777Z,29.39
